CYTB weather

Tillsonburg Airport
Tillsonburg, Ontario, Canada

Public forecast

Using degrees Celsius for public forecast. Weather courtesy of forecast.io.

METAR (pilot weather report)

Closest report is London Airport, 19.0 nm (35.2 km) WNW. Retrieved 2019/05/23 08:00 UTC (45 minutes ago):

CYXU 230800Z 13003KT 15SM SCT140 BKN200 11/11 A2997 RMK AC4CI3 SLP153

TAF (pilot weather forecast)

Closest forecast is London Airport, 19.0 nm (35.2 km) WNW. Retrieved 2019/05/23 06:42 UTC (2 hours ago):

TAF CYXU 230540Z 2306/2406 13006KT P6SM SKC TEMPO 2308/2309 2SM BR BKN005 FM230900 18006KT 2SM BR OVC006 TEMPO 2309/2312 1/2SM FG VV002 FM231200 20012KT 21/2SM BR BKN005 OVC100 TEMPO 2312/2314 6SM -RA BR SCT005 OVC100 FM231400 20012G22KT 6SM BR SCT007 OVC080 TEMPO 2314/2316 4SM -SHRA VCTS BR BKN007 OVC050CB FM231600 26018G28KT P6SM -SHRA FEW010 BKN025 FM231800 27020G35KT P6SM SCT030 BECMG 2400/2402 31012G22KT RMK NXT FCST BY 231200Z